sensor_id;sensor_type;location;lat;lon;timestamp;pressure;altitude;pressure_sealevel;temperature;humidity
18697;BME280;22617;43.690;27.956;2022-10-16T00:04:46;99631.44;;;8.45;72.18
18697;BME280;22617;43.690;27.956;2022-10-16T00:09:50;99630.44;;;8.34;71.81
18697;BME280;22617;43.690;27.956;2022-10-16T00:14:53;99633.88;;;8.33;72.14
18697;BME280;22617;43.690;27.956;2022-10-16T00:19:58;99644.59;;;8.02;70.80
18697;BME280;22617;43.690;27.956;2022-10-16T00:25:20;99646.38;;;8.06;72.13
18697;BME280;22617;43.690;27.956;2022-10-16T00:30:23;99641.28;;;8.12;72.31
18697;BME280;22617;43.690;27.956;2022-10-16T00:35:30;99646.50;;;8.13;72.37
18697;BME280;22617;43.690;27.956;2022-10-16T00:40:34;99648.13;;;8.07;72.10
18697;BME280;22617;43.690;27.956;2022-10-16T00:45:37;99648.97;;;8.06;72.69
18697;BME280;22617;43.690;27.956;2022-10-16T00:50:42;99648.09;;;8.04;73.33
18697;BME280;22617;43.690;27.956;2022-10-16T00:55:45;99653.97;;;7.94;72.51
18697;BME280;22617;43.690;27.956;2022-10-16T01:00:49;99649.63;;;7.93;72.72
18697;BME280;22617;43.690;27.956;2022-10-16T01:06:01;99660.84;;;7.92;72.15
18697;BME280;22617;43.690;27.956;2022-10-16T01:11:13;99665.09;;;7.86;72.39
18697;BME280;22617;43.690;27.956;2022-10-16T01:16:28;99662.25;;;7.73;72.25
18697;BME280;22617;43.690;27.956;2022-10-16T01:21:39;99675.94;;;7.64;72.85
18697;BME280;22617;43.690;27.956;2022-10-16T01:27:00;99683.69;;;7.63;73.52
18697;BME280;22617;43.690;27.956;2022-10-16T01:32:10;99682.78;;;7.61;72.37
18697;BME280;22617;43.690;27.956;2022-10-16T01:37:16;99690.53;;;7.58;73.15
18697;BME280;22617;43.690;27.956;2022-10-16T01:42:27;99692.91;;;7.47;73.53
18697;BME280;22617;43.690;27.956;2022-10-16T01:47:33;99691.03;;;7.38;73.83
18697;BME280;22617;43.690;27.956;2022-10-16T01:52:41;99695.34;;;7.38;74.81
18697;BME280;22617;43.690;27.956;2022-10-16T01:57:50;99696.06;;;7.32;74.89
18697;BME280;22617;43.690;27.956;2022-10-16T02:02:55;99698.63;;;7.31;74.93
18697;BME280;22617;43.690;27.956;2022-10-16T02:08:02;99697.88;;;7.36;74.93
18697;BME280;22617;43.690;27.956;2022-10-16T02:13:10;99699.56;;;7.33;74.90
18697;BME280;22617;43.690;27.956;2022-10-16T02:18:34;99702.06;;;7.30;75.13
18697;BME280;22617;43.690;27.956;2022-10-16T02:23:45;99710.63;;;7.26;74.81
18697;BME280;22617;43.690;27.956;2022-10-16T02:28:55;99712.44;;;7.30;74.82
18697;BME280;22617;43.690;27.956;2022-10-16T02:34:04;99724.41;;;7.25;75.09
18697;BME280;22617;43.690;27.956;2022-10-16T02:39:09;99726.00;;;7.17;74.77
18697;BME280;22617;43.690;27.956;2022-10-16T02:44:15;99729.28;;;7.08;75.28
18697;BME280;22617;43.690;27.956;2022-10-16T02:49:18;99726.69;;;7.08;75.41
18697;BME280;22617;43.690;27.956;2022-10-16T02:54:22;99725.91;;;7.12;75.51
18697;BME280;22617;43.690;27.956;2022-10-16T02:59:27;99727.56;;;7.09;75.36
18697;BME280;22617;43.690;27.956;2022-10-16T03:04:30;99733.47;;;7.03;75.35
18697;BME280;22617;43.690;27.956;2022-10-16T03:09:34;99743.41;;;6.83;75.75
18697;BME280;22617;43.690;27.956;2022-10-16T03:14:39;99730.69;;;6.95;76.19
18697;BME280;22617;43.690;27.956;2022-10-16T03:19:42;99728.97;;;6.94;75.67
18697;BME280;22617;43.690;27.956;2022-10-16T03:24:46;99728.81;;;6.88;75.53
18697;BME280;22617;43.690;27.956;2022-10-16T03:29:50;99731.47;;;6.91;75.54
18697;BME280;22617;43.690;27.956;2022-10-16T03:34:54;99736.66;;;6.91;75.90
18697;BME280;22617;43.690;27.956;2022-10-16T03:39:58;99728.81;;;6.88;76.03
18697;BME280;22617;43.690;27.956;2022-10-16T03:45:06;99733.88;;;6.82;76.48
18697;BME280;22617;43.690;27.956;2022-10-16T03:50:09;99738.84;;;6.73;76.55
18697;BME280;22617;43.690;27.956;2022-10-16T03:55:13;99746.63;;;6.73;76.77
18697;BME280;22617;43.690;27.956;2022-10-16T04:00:18;99753.44;;;6.70;76.70
18697;BME280;22617;43.690;27.956;2022-10-16T04:05:21;99751.75;;;6.72;76.42
18697;BME280;22617;43.690;27.956;2022-10-16T04:10:25;99753.69;;;6.80;76.13
18697;BME280;22617;43.690;27.956;2022-10-16T04:15:30;99759.72;;;6.79;75.44
18697;BME280;22617;43.690;27.956;2022-10-16T04:20:33;99746.13;;;6.89;75.57
18697;BME280;22617;43.690;27.956;2022-10-16T04:25:37;99756.34;;;6.83;74.98
18697;BME280;22617;43.690;27.956;2022-10-16T04:30:42;99757.19;;;6.82;75.33
18697;BME280;22617;43.690;27.956;2022-10-16T04:35:45;99755.31;;;6.75;74.84
18697;BME280;22617;43.690;27.956;2022-10-16T04:40:49;99756.72;;;6.63;75.38
18697;BME280;22617;43.690;27.956;2022-10-16T04:45:53;99760.22;;;6.65;75.85
18697;BME280;22617;43.690;27.956;2022-10-16T04:50:58;99769.09;;;6.74;75.92
18697;BME280;22617;43.690;27.956;2022-10-16T04:56:01;99764.69;;;6.70;75.50
18697;BME280;22617;43.690;27.956;2022-10-16T05:01:06;99756.19;;;6.77;75.95
18697;BME280;22617;43.690;27.956;2022-10-16T05:06:10;99766.75;;;6.85;75.88
18697;BME280;22617;43.690;27.956;2022-10-16T05:11:13;99781.78;;;6.99;76.27
18697;BME280;22617;43.690;27.956;2022-10-16T05:16:18;99783.78;;;7.13;76.30
18697;BME280;22617;43.690;27.956;2022-10-16T05:21:22;99792.03;;;7.34;76.30
18697;BME280;22617;43.690;27.956;2022-10-16T05:26:25;99797.31;;;7.37;76.11
18697;BME280;22617;43.690;27.956;2022-10-16T05:31:31;99807.00;;;7.45;76.62
18697;BME280;22617;43.690;27.956;2022-10-16T05:36:34;99810.38;;;7.83;76.13
18697;BME280;22617;43.690;27.956;2022-10-16T05:41:37;99805.56;;;8.03;75.40
18697;BME280;22617;43.690;27.956;2022-10-16T05:46:42;99821.16;;;8.50;74.64
18697;BME280;22617;43.690;27.956;2022-10-16T05:51:46;99830.94;;;8.64;73.81
18697;BME280;22617;43.690;27.956;2022-10-16T05:56:49;99829.56;;;8.85;73.81
18697;BME280;22617;43.690;27.956;2022-10-16T06:01:54;99835.88;;;9.00;73.73
18697;BME280;22617;43.690;27.956;2022-10-16T06:06:58;99836.09;;;9.14;73.60
18697;BME280;22617;43.690;27.956;2022-10-16T06:12:03;99841.75;;;9.44;72.73
18697;BME280;22617;43.690;27.956;2022-10-16T06:17:08;99843.09;;;9.81;72.71
18697;BME280;22617;43.690;27.956;2022-10-16T06:22:11;99848.56;;;10.04;72.77
18697;BME280;22617;43.690;27.956;2022-10-16T06:27:15;99847.19;;;10.30;72.32
18697;BME280;22617;43.690;27.956;2022-10-16T06:32:20;99856.81;;;10.39;71.36
18697;BME280;22617;43.690;27.956;2022-10-16T06:37:23;99865.72;;;10.61;71.75
18697;BME280;22617;43.690;27.956;2022-10-16T06:42:27;99865.94;;;10.83;71.88
18697;BME280;22617;43.690;27.956;2022-10-16T06:47:32;99878.47;;;11.27;70.66
18697;BME280;22617;43.690;27.956;2022-10-16T06:52:36;99878.66;;;11.54;69.63
18697;BME280;22617;43.690;27.956;2022-10-16T06:57:39;99879.72;;;11.84;68.99
18697;BME280;22617;43.690;27.956;2022-10-16T07:02:44;99880.72;;;12.13;68.66
18697;BME280;22617;43.690;27.956;2022-10-16T07:07:47;99879.94;;;12.40;67.45
18697;BME280;22617;43.690;27.956;2022-10-16T07:12:50;99884.34;;;12.59;66.91
18697;BME280;22617;43.690;27.956;2022-10-16T07:17:55;99887.88;;;12.87;66.01
18697;BME280;22617;43.690;27.956;2022-10-16T07:22:59;99889.66;;;13.32;65.67
18697;BME280;22617;43.690;27.956;2022-10-16T07:28:03;99896.63;;;13.51;64.86
18697;BME280;22617;43.690;27.956;2022-10-16T07:33:08;99889.59;;;13.62;64.07
18697;BME280;22617;43.690;27.956;2022-10-16T07:38:11;99900.13;;;13.51;64.19
18697;BME280;22617;43.690;27.956;2022-10-16T07:43:15;99905.22;;;13.97;64.16
18697;BME280;22617;43.690;27.956;2022-10-16T07:48:19;99888.53;;;14.21;62.84
18697;BME280;22617;43.690;27.956;2022-10-16T07:53:23;99892.88;;;14.32;63.32
18697;BME280;22617;43.690;27.956;2022-10-16T07:58:28;99893.75;;;14.31;62.72
18697;BME280;22617;43.690;27.956;2022-10-16T08:03:33;99889.47;;;14.14;62.85
18697;BME280;22617;43.690;27.956;2022-10-16T08:08:36;99902.31;;;14.71;62.19
18697;BME280;22617;43.690;27.956;2022-10-16T08:13:40;99922.53;;;14.50;61.07
18697;BME280;22617;43.690;27.956;2022-10-16T08:18:45;99917.31;;;14.48;60.80
18697;BME280;22617;43.690;27.956;2022-10-16T08:23:49;99921.22;;;15.19;60.18
18697;BME280;22617;43.690;27.956;2022-10-16T08:28:59;99916.28;;;14.76;60.47
18697;BME280;22617;43.690;27.956;2022-10-16T08:34:04;99918.59;;;15.16;60.72
18697;BME280;22617;43.690;27.956;2022-10-16T08:39:07;99921.50;;;15.85;59.48
18697;BME280;22617;43.690;27.956;2022-10-16T08:44:27;99915.53;;;15.70;58.54
18697;BME280;22617;43.690;27.956;2022-10-16T08:49:35;99912.06;;;16.43;57.80
18697;BME280;22617;43.690;27.956;2022-10-16T08:54:42;99918.38;;;16.27;57.31
18697;BME280;22617;43.690;27.956;2022-10-16T08:59:47;99915.81;;;16.90;55.63
18697;BME280;22617;43.690;27.956;2022-10-16T09:05:00;99912.34;;;16.21;56.60
18697;BME280;22617;43.690;27.956;2022-10-16T09:10:14;99909.59;;;16.94;55.20
18697;BME280;22617;43.690;27.956;2022-10-16T09:15:27;99915.91;;;17.39;56.00
18697;BME280;22617;43.690;27.956;2022-10-16T09:20:42;99906.63;;;18.13;53.21
18697;BME280;22617;43.690;27.956;2022-10-16T09:25:49;99910.13;;;18.14;52.11
18697;BME280;22617;43.690;27.956;2022-10-16T09:30:53;99914.28;;;17.84;52.10
18697;BME280;22617;43.690;27.956;2022-10-16T09:35:58;99904.56;;;18.29;52.72
18697;BME280;22617;43.690;27.956;2022-10-16T09:41:10;99887.59;;;18.81;52.19
18697;BME280;22617;43.690;27.956;2022-10-16T09:46:26;99890.50;;;19.42;50.15
18697;BME280;22617;43.690;27.956;2022-10-16T09:51:33;99885.44;;;19.33;50.31
18697;BME280;22617;43.690;27.956;2022-10-16T09:56:37;99885.66;;;18.89;51.52
18697;BME280;22617;43.690;27.956;2022-10-16T10:01:45;99882.34;;;19.16;50.29
18697;BME280;22617;43.690;27.956;2022-10-16T10:06:52;99879.22;;;19.36;51.01
18697;BME280;22617;43.690;27.956;2022-10-16T10:11:58;99887.81;;;18.30;51.10
18697;BME280;22617;43.690;27.956;2022-10-16T10:17:11;99881.63;;;19.46;50.68
18697;BME280;22617;43.690;27.956;2022-10-16T10:22:23;99876.28;;;19.48;48.72
18697;BME280;22617;43.690;27.956;2022-10-16T10:27:34;99886.59;;;19.23;48.68
18697;BME280;22617;43.690;27.956;2022-10-16T10:32:51;99878.16;;;20.08;48.03
18697;BME280;22617;43.690;27.956;2022-10-16T10:38:07;99862.97;;;20.45;48.15
18697;BME280;22617;43.690;27.956;2022-10-16T10:43:27;99859.44;;;20.44;47.46
18697;BME280;22617;43.690;27.956;2022-10-16T10:48:48;99857.63;;;20.16;46.19
18697;BME280;22617;43.690;27.956;2022-10-16T10:54:07;99856.59;;;20.52;46.69
18697;BME280;22617;43.690;27.956;2022-10-16T10:59:30;99862.06;;;20.46;47.09
18697;BME280;22617;43.690;27.956;2022-10-16T11:05:00;99852.00;;;20.85;46.09
18697;BME280;22617;43.690;27.956;2022-10-16T11:10:16;99855.44;;;20.61;45.22
18697;BME280;22617;43.690;27.956;2022-10-16T11:15:26;99862.19;;;20.41;46.60
18697;BME280;22617;43.690;27.956;2022-10-16T11:20:33;99874.28;;;20.19;46.38
18697;BME280;22617;43.690;27.956;2022-10-16T11:25:39;99851.59;;;20.97;46.29
18697;BME280;22617;43.690;27.956;2022-10-16T11:30:46;99851.75;;;20.93;45.64
18697;BME280;22617;43.690;27.956;2022-10-16T11:35:57;99860.34;;;21.27;45.02
18697;BME280;22617;43.690;27.956;2022-10-16T11:41:15;99847.28;;;21.21;44.55
18697;BME280;22617;43.690;27.956;2022-10-16T11:46:21;99853.53;;;20.92;44.79
18697;BME280;22617;43.690;27.956;2022-10-16T11:51:33;99857.75;;;20.98;43.79
18697;BME280;22617;43.690;27.956;2022-10-16T11:56:41;99851.03;;;20.60;44.94
18697;BME280;22617;43.690;27.956;2022-10-16T12:01:50;99851.19;;;20.55;45.50
18697;BME280;22617;43.690;27.956;2022-10-16T12:06:58;99854.91;;;19.88;45.42
18697;BME280;22617;43.690;27.956;2022-10-16T12:12:25;99858.09;;;20.31;44.81
18697;BME280;22617;43.690;27.956;2022-10-16T12:17:37;99859.88;;;20.31;44.97
18697;BME280;22617;43.690;27.956;2022-10-16T12:22:48;99871.78;;;20.45;44.90
18697;BME280;22617;43.690;27.956;2022-10-16T12:27:59;99875.38;;;19.81;45.58
18697;BME280;22617;43.690;27.956;2022-10-16T12:33:05;99871.03;;;19.79;45.41
18697;BME280;22617;43.690;27.956;2022-10-16T12:38:16;99878.44;;;19.32;46.61
18697;BME280;22617;43.690;27.956;2022-10-16T12:43:28;99875.41;;;19.12;46.51
18697;BME280;22617;43.690;27.956;2022-10-16T12:48:40;99878.09;;;19.09;46.81
18697;BME280;22617;43.690;27.956;2022-10-16T12:54:04;99878.72;;;18.45;47.16
18697;BME280;22617;43.690;27.956;2022-10-16T12:59:17;99890.84;;;18.52;47.79
18697;BME280;22617;43.690;27.956;2022-10-16T13:04:43;99894.19;;;18.20;47.65
18697;BME280;22617;43.690;27.956;2022-10-16T13:10:01;99898.56;;;17.78;48.16
18697;BME280;22617;43.690;27.956;2022-10-16T13:15:24;99898.03;;;17.56;48.60
18697;BME280;22617;43.690;27.956;2022-10-16T13:20:35;99902.25;;;17.14;48.90
18697;BME280;22617;43.690;27.956;2022-10-16T13:25:46;99904.75;;;17.23;49.48
18697;BME280;22617;43.690;27.956;2022-10-16T13:30:55;99901.69;;;16.95;49.51
18697;BME280;22617;43.690;27.956;2022-10-16T13:36:00;99895.75;;;16.81;49.47
18697;BME280;22617;43.690;27.956;2022-10-16T13:41:05;99904.75;;;16.65;50.49
18697;BME280;22617;43.690;27.956;2022-10-16T13:46:14;99906.63;;;16.59;49.93
18697;BME280;22617;43.690;27.956;2022-10-16T13:51:18;99899.84;;;16.39;50.79
18697;BME280;22617;43.690;27.956;2022-10-16T13:56:24;99915.50;;;16.47;50.71
18697;BME280;22617;43.690;27.956;2022-10-16T14:01:31;99916.69;;;16.23;50.36
18697;BME280;22617;43.690;27.956;2022-10-16T14:06:40;99913.19;;;16.21;50.96
18697;BME280;22617;43.690;27.956;2022-10-16T14:11:48;99922.06;;;16.14;50.70
18697;BME280;22617;43.690;27.956;2022-10-16T14:16:56;99924.00;;;15.98;50.92
18697;BME280;22617;43.690;27.956;2022-10-16T14:22:01;99932.09;;;15.79;50.82
18697;BME280;22617;43.690;27.956;2022-10-16T14:27:27;99938.25;;;15.78;51.10
18697;BME280;22617;43.690;27.956;2022-10-16T14:32:33;99939.09;;;15.78;50.88
18697;BME280;22617;43.690;27.956;2022-10-16T14:37:36;99940.94;;;15.68;50.63
18697;BME280;22617;43.690;27.956;2022-10-16T14:42:43;99929.72;;;15.53;50.54
18697;BME280;22617;43.690;27.956;2022-10-16T14:47:50;99929.94;;;15.24;51.48
18697;BME280;22617;43.690;27.956;2022-10-16T14:52:55;99941.50;;;15.00;52.26
18697;BME280;22617;43.690;27.956;2022-10-16T14:57:58;99949.44;;;14.90;52.27
18697;BME280;22617;43.690;27.956;2022-10-16T15:03:03;99951.25;;;14.72;53.11
18697;BME280;22617;43.690;27.956;2022-10-16T15:08:06;99945.28;;;14.48;53.40
18697;BME280;22617;43.690;27.956;2022-10-16T15:13:12;99954.94;;;14.30;54.61
18697;BME280;22617;43.690;27.956;2022-10-16T15:18:17;99953.25;;;14.07;54.88
18697;BME280;22617;43.690;27.956;2022-10-16T15:23:22;99969.03;;;13.91;55.91
18697;BME280;22617;43.690;27.956;2022-10-16T15:28:30;99969.03;;;13.82;56.44
18697;BME280;22617;43.690;27.956;2022-10-16T15:33:35;99978.69;;;13.59;56.64
18697;BME280;22617;43.690;27.956;2022-10-16T15:38:41;99976.06;;;13.42;56.99
18697;BME280;22617;43.690;27.956;2022-10-16T15:43:44;99976.06;;;13.26;57.77
18697;BME280;22617;43.690;27.956;2022-10-16T15:48:56;99989.06;;;13.01;58.47
18697;BME280;22617;43.690;27.956;2022-10-16T15:54:00;100008.25;;;12.85;58.82
18697;BME280;22617;43.690;27.956;2022-10-16T15:59:04;100013.44;;;12.75;59.04
18697;BME280;22617;43.690;27.956;2022-10-16T16:04:10;100023.03;;;12.76;59.45
18697;BME280;22617;43.690;27.956;2022-10-16T16:09:34;100035.19;;;12.72;59.58
18697;BME280;22617;43.690;27.956;2022-10-16T16:14:37;100041.25;;;12.57;60.15
18697;BME280;22617;43.690;27.956;2022-10-16T16:19:42;100051.63;;;12.41;60.25
18697;BME280;22617;43.690;27.956;2022-10-16T16:24:45;100054.13;;;12.24;60.64
18697;BME280;22617;43.690;27.956;2022-10-16T16:29:49;100059.31;;;12.16;60.82
18697;BME280;22617;43.690;27.956;2022-10-16T16:34:54;100063.59;;;12.02;61.51
18697;BME280;22617;43.690;27.956;2022-10-16T16:39:58;100067.91;;;11.97;61.60
18697;BME280;22617;43.690;27.956;2022-10-16T16:45:01;100065.22;;;11.90;61.96
18697;BME280;22617;43.690;27.956;2022-10-16T16:50:06;100070.16;;;11.61;61.52
18697;BME280;22617;43.690;27.956;2022-10-16T16:55:10;100081.44;;;11.55;62.46
18697;BME280;22617;43.690;27.956;2022-10-16T17:00:14;100091.81;;;11.46;62.51
18697;BME280;22617;43.690;27.956;2022-10-16T17:05:19;100094.16;;;11.23;63.07
18697;BME280;22617;43.690;27.956;2022-10-16T17:10:23;100093.06;;;11.05;63.48
18697;BME280;22617;43.690;27.956;2022-10-16T17:15:26;100097.44;;;11.06;63.79
18697;BME280;22617;43.690;27.956;2022-10-16T17:20:35;100105.94;;;10.88;64.04
18697;BME280;22617;43.690;27.956;2022-10-16T17:25:39;100107.78;;;11.00;64.07
18697;BME280;22617;43.690;27.956;2022-10-16T17:30:43;100114.53;;;10.84;64.22
18697;BME280;22617;43.690;27.956;2022-10-16T17:35:48;100118.78;;;10.73;63.85
18697;BME280;22617;43.690;27.956;2022-10-16T17:40:52;100121.31;;;10.68;64.04
18697;BME280;22617;43.690;27.956;2022-10-16T17:45:55;100121.25;;;10.65;63.22
18697;BME280;22617;43.690;27.956;2022-10-16T17:51:02;100124.63;;;10.57;64.87
18697;BME280;22617;43.690;27.956;2022-10-16T17:56:08;100124.53;;;10.49;63.54
18697;BME280;22617;43.690;27.956;2022-10-16T18:01:12;100127.19;;;10.54;63.71
18697;BME280;22617;43.690;27.956;2022-10-16T18:06:18;100122.84;;;10.54;63.91
18697;BME280;22617;43.690;27.956;2022-10-16T18:11:25;100119.97;;;10.34;63.44
18697;BME280;22617;43.690;27.956;2022-10-16T18:16:30;100134.88;;;9.93;63.16
18697;BME280;22617;43.690;27.956;2022-10-16T18:21:34;100132.75;;;9.70;64.01
18697;BME280;22617;43.690;27.956;2022-10-16T18:26:38;100135.97;;;9.56;65.09
18697;BME280;22617;43.690;27.956;2022-10-16T18:31:41;100141.34;;;9.66;64.47
18697;BME280;22617;43.690;27.956;2022-10-16T18:36:46;100142.03;;;9.54;65.16
18697;BME280;22617;43.690;27.956;2022-10-16T18:41:55;100153.94;;;9.43;65.28
18697;BME280;22617;43.690;27.956;2022-10-16T18:47:01;100162.09;;;9.61;65.25
18697;BME280;22617;43.690;27.956;2022-10-16T18:52:06;100169.19;;;9.70;64.61
18697;BME280;22617;43.690;27.956;2022-10-16T18:57:09;100169.66;;;9.47;64.31
18697;BME280;22617;43.690;27.956;2022-10-16T19:02:13;100169.81;;;9.13;64.51
18697;BME280;22617;43.690;27.956;2022-10-16T19:07:18;100166.00;;;8.96;65.29
18697;BME280;22617;43.690;27.956;2022-10-16T19:12:21;100170.94;;;8.84;65.69
18697;BME280;22617;43.690;27.956;2022-10-16T19:17:25;100181.75;;;8.64;65.80
18697;BME280;22617;43.690;27.956;2022-10-16T19:22:30;100183.16;;;8.49;66.09
18697;BME280;22617;43.690;27.956;2022-10-16T19:27:53;100191.91;;;8.54;66.54
18697;BME280;22617;43.690;27.956;2022-10-16T19:32:57;100190.41;;;8.63;66.44
18697;BME280;22617;43.690;27.956;2022-10-16T19:38:02;100193.19;;;8.71;65.54
18697;BME280;22617;43.690;27.956;2022-10-16T19:43:06;100186.28;;;8.71;65.24
18697;BME280;22617;43.690;27.956;2022-10-16T19:48:09;100190.94;;;8.49;66.07
18697;BME280;22617;43.690;27.956;2022-10-16T19:53:14;100181.50;;;8.54;66.15
18697;BME280;22617;43.690;27.956;2022-10-16T19:58:17;100187.47;;;8.48;65.42
18697;BME280;22617;43.690;27.956;2022-10-16T20:03:21;100191.06;;;8.55;65.81
18697;BME280;22617;43.690;27.956;2022-10-16T20:08:26;100202.06;;;8.09;66.15
18697;BME280;22617;43.690;27.956;2022-10-16T20:13:30;100204.38;;;7.98;66.91
18697;BME280;22617;43.690;27.956;2022-10-16T20:18:39;100212.50;;;8.12;66.70
18697;BME280;22617;43.690;27.956;2022-10-16T20:23:44;100211.63;;;8.11;66.35
18697;BME280;22617;43.690;27.956;2022-10-16T20:28:50;100208.78;;;8.02;65.97
18697;BME280;22617;43.690;27.956;2022-10-16T20:33:55;100212.28;;;8.03;65.72
18697;BME280;22617;43.690;27.956;2022-10-16T20:39:01;100208.97;;;7.75;65.94
18697;BME280;22617;43.690;27.956;2022-10-16T20:44:04;100210.63;;;7.73;66.12
18697;BME280;22617;43.690;27.956;2022-10-16T20:49:08;100204.25;;;7.94;66.50
18697;BME280;22617;43.690;27.956;2022-10-16T20:54:30;100211.84;;;7.86;65.90
18697;BME280;22617;43.690;27.956;2022-10-16T20:59:33;100218.06;;;7.93;66.57
18697;BME280;22617;43.690;27.956;2022-10-16T21:04:37;100221.25;;;7.82;66.05
18697;BME280;22617;43.690;27.956;2022-10-16T21:09:42;100219.84;;;7.62;66.11
18697;BME280;22617;43.690;27.956;2022-10-16T21:14:46;100214.22;;;7.78;66.56
18697;BME280;22617;43.690;27.956;2022-10-16T21:20:09;100206.78;;;7.91;65.83
18697;BME280;22617;43.690;27.956;2022-10-16T21:25:14;100210.38;;;7.96;65.30
18697;BME280;22617;43.690;27.956;2022-10-16T21:30:18;100211.44;;;8.04;65.06
18697;BME280;22617;43.690;27.956;2022-10-16T21:35:21;100216.81;;;8.11;64.96
18697;BME280;22617;43.690;27.956;2022-10-16T21:40:27;100218.91;;;8.24;64.47
18697;BME280;22617;43.690;27.956;2022-10-16T21:45:32;100223.69;;;8.42;64.95
18697;BME280;22617;43.690;27.956;2022-10-16T21:50:36;100224.75;;;8.50;63.81
18697;BME280;22617;43.690;27.956;2022-10-16T21:55:40;100229.06;;;8.50;64.36
18697;BME280;22617;43.690;27.956;2022-10-16T22:00:44;100221.69;;;8.32;64.63
18697;BME280;22617;43.690;27.956;2022-10-16T22:05:47;100229.53;;;8.34;64.48
18697;BME280;22617;43.690;27.956;2022-10-16T22:10:52;100244.06;;;8.27;64.59
18697;BME280;22617;43.690;27.956;2022-10-16T22:15:56;100246.78;;;7.99;64.88
18697;BME280;22617;43.690;27.956;2022-10-16T22:20:59;100251.97;;;7.99;65.62
18697;BME280;22617;43.690;27.956;2022-10-16T22:26:06;100244.53;;;8.12;65.28
18697;BME280;22617;43.690;27.956;2022-10-16T22:31:12;100245.13;;;8.01;64.76
18697;BME280;22617;43.690;27.956;2022-10-16T22:36:16;100240.28;;;8.14;65.09
18697;BME280;22617;43.690;27.956;2022-10-16T22:41:21;100231.59;;;8.14;64.56
18697;BME280;22617;43.690;27.956;2022-10-16T22:46:29;100247.38;;;8.21;64.86
18697;BME280;22617;43.690;27.956;2022-10-16T22:51:32;100255.53;;;8.35;65.10
18697;BME280;22617;43.690;27.956;2022-10-16T22:56:37;100262.59;;;8.39;65.15
18697;BME280;22617;43.690;27.956;2022-10-16T23:01:41;100241.81;;;8.41;65.41
18697;BME280;22617;43.690;27.956;2022-10-16T23:06:45;100256.19;;;8.61;64.75
18697;BME280;22617;43.690;27.956;2022-10-16T23:11:49;100258.13;;;8.69;64.76
18697;BME280;22617;43.690;27.956;2022-10-16T23:16:53;100268.16;;;8.90;64.40
18697;BME280;22617;43.690;27.956;2022-10-16T23:21:57;100266.56;;;8.97;64.97
18697;BME280;22617;43.690;27.956;2022-10-16T23:27:02;100265.41;;;8.84;64.57
18697;BME280;22617;43.690;27.956;2022-10-16T23:32:05;100262.91;;;8.89;64.76
18697;BME280;22617;43.690;27.956;2022-10-16T23:37:09;100263.69;;;8.85;65.06
18697;BME280;22617;43.690;27.956;2022-10-16T23:42:14;100271.31;;;8.79;64.11
18697;BME280;22617;43.690;27.956;2022-10-16T23:47:17;100287.06;;;8.85;64.02
18697;BME280;22617;43.690;27.956;2022-10-16T23:52:21;100277.81;;;8.97;65.32
18697;BME280;22617;43.690;27.956;2022-10-16T23:57:26;100272.63;;;8.96;65.07
